Kingdom City, MO (65262)

6:45 PM CDT on May 27, 2017 (GMT -0500)
YMCA | | Change Station

Elev 853 ft 38.86 °N, 91.94 °W | Updated 5 seconds ago

Partly Cloudy
Partly Cloudy
62.0 °F
Feels Like 62.0 °F
N
5.0
Wind Variable Wind from SSW
Gusts 8.0 mph

Today
High -- | Low -- °F
--% Chance of Precip.
Yesterday
High -- | Low -- °F
Precip. -- in
Pressure 29.77 in
Visibility 10.0 miles
Clouds Few 9000 ft
Dew Point 60 °F
Humidity 94%
Rainfall 1.23 in
Snow Depth Not available.
5:46 AM 8:24 PM
Waxing Crescent, 7% visible
METAR KCOU 272254Z 15005KT 10SM FEW090 17/17 A2978 RMK AO2 LTG DSNT SE PRESFR SLP079 T01720167
Pressure 29.77 in
Visibility 10.0 miles
Clouds Few 9000 ft
Dew Point 60 °F
Humidity 94%
Rainfall 1.23 in
Snow Depth Not available.
5:46 AM 8:24 PM
Waxing Crescent, 7% visible
METAR KCOU 272254Z 15005KT 10SM FEW090 17/17 A2978 RMK AO2 LTG DSNT SE PRESFR SLP079 T01720167

Get Your Daily Forecast Email!

Thanks for signing up!

Be on the lookout for a verification email in your inbox.

You'll start receiving severe weather alerts in your inbox..

×

10-Day Weather Forecast

Almanac

Astronomy

May. 27, 2017 Rise Set
Actual Time
Civil Twilight
Nautical Twilight
Astronomical Twilight
Moon
Length of Visible Light
Length of Day
Tomorrow will be .
, % of the Moon is Illuminated

Today's Extremes

State Highs State Lows

Community

WunderPhotos

Category 6

Welcome to Category 6. This is the collective home for Weather Underground's featured writeups by Dr. Jeff Masters (right), Bob Henson (left), Chris Burt, and other regular contributors.

Nearby

Air Quality

  Air Quality AQ Index Pollutant
Not available.

Snow Depth

Station Depth Elevation

Earthquake Activity

City Distance Mag. Time & Date
Minimum magnitude displayed is 2.5.

Coastal Water Temperatures

Place Temperature

Stations

Nearby Weather Stations

Station Location Temp. Windchill Dew Point Humidity Wind Precip. Elev Updated Type
                   

Watches & Warnings

Severe Thunderstorm Watch
Issued: 6:43 PM CDT May. 27, 2017 – National Weather Service

Severe Thunderstorm Watch 283 remains in effect until 200 am CDT

MO
. Missouri counties included are

Barton Benton Callaway
Camden Cedar Cole
Crawford Dade Dallas
Dent Franklin Gasconade
Hickory Iron Jefferson
Laclede Madison Maries
Miller Moniteau Montgomery
Morgan Osage Phelps
Polk Pulaski Reynolds
St. Clair Ste. Genevieve St. Francois
Vernon Warren Washington